LEMG/AGP METAR and TAF weather

Enter ICAO airport designator
Station Type Date Time Source
LEMG METAR 2019/02/21 16:00 UTC NOAA

LEMG 211600Z 12008KT 9999 FEW020 SCT040 15/10 Q1029 NOSIG


Station Type Date Time Source
LEMG Decoded METAR 2019/02/21 16:00 UTC NOAA

Malaga / Aeropuerto, Spain (LEMG) 36-40N 004-29W 7M
Feb 21, 2019 - 11:00 AM EST / 2019.02.21 1600 UTC
Wind: from the ESE (120 degrees) at 9 MPH (8 KT):0
Visibility: greater than 7 mile(s):0
Sky conditions: partly cloudy
Temperature: 59 F (15 C)
Dew Point: 50 F (10 C)
Relative Humidity: 72%
Pressure (altimeter): 30.39 in. Hg (1029 hPa)
ob: LEMG 211600Z 12008KT 9999 FEW020 SCT040 15/10 Q1029 NOSIG
cycle: 16

Station Type Date Time Source
LEMG TAF 2019/02/21 12:27 UTC NOAA

TAF LEMG 211100Z 2112/2212 11008KT 9999 SCT020 SCT030 TX18/2114Z TN11/2206Z PROB40 2122/2209 29005KT


Example: see airport list